Map

Track Data

SID SEASON NUMBER BASIN SUBBASIN NAME ISO_TIME NATURE LAT LON WMO_WIND WMO_PRES WMO_AGENCY TRACK_TYPE DIST2LAND LANDFALL IFLAG USA_AGENCY USA_ATCF_ID USA_LAT USA_LON USA_RECORD USA_STATUS USA_WIND USA_PRES USA_SSHS USA_R34_NE USA_R34_SE USA_R34_SW USA_R34_NW USA_R50_NE USA_R50_SE USA_R50_SW USA_R50_NW USA_R64_NE USA_R64_SE USA_R64_SW USA_R64_NW USA_POCI USA_ROCI USA_RMW USA_EYE TOKYO_LAT TOKYO_LON TOKYO_GRADE TOKYO_WIND TOKYO_PRES TOKYO_R50_DIR TOKYO_R50_LONG TOKYO_R50_SHORT TOKYO_R30_DIR TOKYO_R30_LONG TOKYO_R30_SHORT TOKYO_LAND CMA_LAT CMA_LON CMA_CAT CMA_WIND CMA_PRES HKO_LAT HKO_LON HKO_CAT HKO_WIND HKO_PRES NEWDELHI_LAT NEWDELHI_LON NEWDELHI_GRADE NEWDELHI_WIND NEWDELHI_PRES NEWDELHI_CI NEWDELHI_DP NEWDELHI_POCI REUNION_LAT REUNION_LON REUNION_TYPE REUNION_WIND REUNION_PRES REUNION_TNUM REUNION_CI REUNION_RMW REUNION_R34_NE REUNION_R34_SE REUNION_R34_SW REUNION_R34_NW REUNION_R50_NE REUNION_R50_SE REUNION_R50_SW REUNION_R50_NW REUNION_R64_NE REUNION_R64_SE REUNION_R64_SW REUNION_R64_NW BOM_LAT BOM_LON BOM_TYPE BOM_WIND BOM_PRES BOM_TNUM BOM_CI BOM_RMW BOM_R34_NE BOM_R34_SE BOM_R34_SW BOM_R34_NW BOM_R50_NE BOM_R50_SE BOM_R50_SW BOM_R50_NW BOM_R64_NE BOM_R64_SE BOM_R64_SW BOM_R64_NW BOM_ROCI BOM_POCI BOM_EYE BOM_POS_METHOD BOM_PRES_METHOD NADI_LAT NADI_LON NADI_CAT NADI_WIND NADI_PRES WELLINGTON_LAT WELLINGTON_LON WELLINGTON_WIND WELLINGTON_PRES DS824_LAT DS824_LON DS824_STAGE DS824_WIND DS824_PRES TD9636_LAT TD9636_LON TD9636_STAGE TD9636_WIND TD9636_PRES TD9635_LAT TD9635_LON TD9635_WIND TD9635_PRES TD9635_ROCI NEUMANN_LAT NEUMANN_LON NEUMANN_CLASS NEUMANN_WIND NEUMANN_PRES MLC_LAT MLC_LON MLC_CLASS MLC_WIND MLC_PRES USA_GUST BOM_GUST BOM_GUST_PER REUNION_GUST REUNION_GUST_PER USA_SEAHGT USA_SEARAD_NE USA_SEARAD_SE USA_SEARAD_SW USA_SEARAD_NW STORM_SPEED STORM_DIR
1937240N13136 1937 37 WP MM NOT_NAMED 1937-08-28 10:00:00 NR 12.7000 136.400 main 1169 1148 __________O___ -1 12.7000 136.400 7 5 270
1937240N13136 1937 37 WP MM NOT_NAMED 1937-08-28 12:00:00 NR 12.6999 136.217 main 1148 1116 __________P___ -1 12.6999 136.217 7 6 270
1937240N13136 1937 37 WP MM NOT_NAMED 1937-08-28 15:00:00 NR 12.6997 135.923 main 1116 1083 __________P___ -1 12.6997 135.923 7 6 270
1937240N13136 1937 37 WP MM NOT_NAMED 1937-08-28 18:00:00 NR 12.6997 135.581 main 1083 1041 __________P___ -1 12.6997 135.581 7 7 270
1937240N13136 1937 37 WP MM NOT_NAMED 1937-08-28 21:00:00 NR 12.6999 135.162 main 1041 1019 __________P___ -1 12.6999 135.162 7 9 270
1937240N13136 1937 37 WP MM NOT_NAMED 1937-08-28 22:00:00 NR 12.7000 135.000 main 1019 976 __________O___ -1 12.7000 135.000 7 10 270
1937240N13136 1937 37 WP MM NOT_NAMED 1937-08-29 00:00:00 NR 12.7011 134.640 main 976 912 __________P___ -1 12.7011 134.640 7 11 271
1937240N13136 1937 37 WP MM NOT_NAMED 1937-08-29 03:00:00 NR 12.7147 134.025 main 912 841 __________P___ -1 12.7147 134.025 7 13 273
1937240N13136 1937 37 WP MM NOT_NAMED 1937-08-29 06:00:00 NR 12.7594 133.347 main 841 770 __________P___ -1 12.7594 133.347 7 14 276
1937240N13136 1937 37 WP MM NOT_NAMED 1937-08-29 09:00:00 NR 12.8540 132.638 main 770 749 __________P___ -1 12.8540 132.638 7 14 279
1937240N13136 1937 37 WP MM NOT_NAMED 1937-08-29 10:00:00 NR 12.9000 132.400 main 749 700 __________O___ -1 12.9000 132.400 7 15 282
1937240N13136 1937 37 WP MM NOT_NAMED 1937-08-29 12:00:00 NR 13.0136 131.898 main 700 618 __________P___ -1 13.0136 131.898 7 15 285
1937240N13136 1937 37 WP MM NOT_NAMED 1937-08-29 15:00:00 NR 13.2342 131.131 main 618 551 __________P___ -1 13.2342 131.131 7 15 288
1937240N13136 1937 37 WP MM NOT_NAMED 1937-08-29 18:00:00 NR 13.5006 130.403 main 551 499 __________P___ -1 13.5006 130.403 7 14 293
1937240N13136 1937 37 WP MM NOT_NAMED 1937-08-29 21:00:00 NR 13.7971 129.776 main 499 483 __________P___ -1 13.7971 129.776 7 13 297
1937240N13136 1937 37 WP MM NOT_NAMED 1937-08-29 22:00:00 NR 13.9000 129.600 main 483 463 __________O___ -1 13.9000 129.600 3 10 304
1937240N13136 1937 37 WP MM NOT_NAMED 1937-08-30 00:00:00 NR 14.0881 129.330 main 463 451 __________P___ -1 14.0881 129.330 3 9 312
1937240N13136 1937 37 WP MM NOT_NAMED 1937-08-30 03:00:00 NR 14.3898 129.039 main 451 449 __________P___ -1 14.3898 129.039 3 8 323
1937240N13136 1937 37 WP MM NOT_NAMED 1937-08-30 06:00:00 NR 14.7176 128.835 main 453 453 __________P___ -1 14.7176 128.835 3 8 332
1937240N13136 1937 37 WP MM NOT_NAMED 1937-08-30 09:00:00 NR 15.0743 128.661 main 474 466 __________P___ -1 15.0743 128.661 3 8 335
1937240N13136 1937 37 WP MM NOT_NAMED 1937-08-30 10:00:00 NR 15.2000 128.600 main 474 468 __________O___ -1 15.2000 128.600 4 9 332
1937240N13136 1937 37 WP MM NOT_NAMED 1937-08-30 12:00:00 NR 15.4603 128.451 main 476 465 __________P___ -1 15.4603 128.451 4 9 332
1937240N13136 1937 37 WP MM NOT_NAMED 1937-08-30 15:00:00 NR 15.8760 128.229 main 465 461 __________P___ -1 15.8760 128.229 4 10 332
1937240N13136 1937 37 WP MM NOT_NAMED 1937-08-30 18:00:00 NR 16.3111 127.988 main 470 468 __________P___ -1 16.3111 127.988 4 10 330
1937240N13136 1937 37 WP MM NOT_NAMED 1937-08-30 21:00:00 NR 16.7532 127.706 main 480 480 __________P___ -1 16.7532 127.706 4 10 328
1937240N13136 1937 37 WP MM NOT_NAMED 1937-08-30 22:00:00 NR 16.9000 127.600 main 480 479 __________O___ -1 16.9000 127.600 4 11 325
1937240N13136 1937 37 WP MM NOT_NAMED 1937-08-31 00:00:00 NR 17.1962 127.378 main 488 481 __________P___ -1 17.1962 127.378 4 11 322
1937240N13136 1937 37 WP MM NOT_NAMED 1937-08-31 03:00:00 NR 17.6408 127.000 main 482 449 __________P___ -1 17.6408 127.000 4 12 319
1937240N13136 1937 37 WP MM NOT_NAMED 1937-08-31 06:00:00 NR 18.0721 126.568 main 451 400 __________P___ -1 18.0721 126.568 4 12 314
1937240N13136 1937 37 WP MM NOT_NAMED 1937-08-31 09:00:00 NR 18.4748 126.077 main 401 380 __________P___ -1 18.4748 126.077 4 12 310
1937240N13136 1937 37 WP MM NOT_NAMED 1937-08-31 10:00:00 NR 18.6000 125.900 main 380 341 __________O___ -1 18.6000 125.900 4 13 306
1937240N13136 1937 37 WP MM NOT_NAMED 1937-08-31 12:00:00 NR 18.8629 125.522 main 341 287 __________P___ -1 18.8629 125.522 4 14 304
1937240N13136 1937 37 WP MM NOT_NAMED 1937-08-31 15:00:00 NR 19.2265 124.904 main 287 243 __________P___ -1 19.2265 124.904 4 14 299
1937240N13136 1937 37 WP MM NOT_NAMED 1937-08-31 18:00:00 NR 19.5304 124.254 main 243 199 __________P___ -1 19.5304 124.254 4 13 293
1937240N13136 1937 37 WP MM NOT_NAMED 1937-08-31 21:00:00 NR 19.7498 123.609 main 199 194 __________P___ -1 19.7498 123.609 4 13 289
1937240N13136 1937 37 WP MM NOT_NAMED 1937-08-31 22:00:00 NR 19.8000 123.400 main 194 173 __________O___ -1 19.8000 123.400 4 11 280
1937240N13136 1937 37 WP MM NOT_NAMED 1937-09-01 00:00:00 NR 19.8491 123.012 main 173 158 __________P___ -1 19.8491 123.012 4 11 273
1937240N13136 1937 37 WP MM NOT_NAMED 1937-09-01 03:00:00 NR 19.8411 122.450 main 158 154 __________P___ -1 19.8411 122.450 4 10 266
1937240N13136 1937 37 WP MM NOT_NAMED 1937-09-01 06:00:00 NR 19.7794 121.907 main 154 133 __________P___ -1 19.7794 121.907 4 10 263
1937240N13136 1937 37 WP MM NOT_NAMED 1937-09-01 09:00:00 NR 19.7140 121.376 main 133 127 __________P___ -1 19.7140 121.376 4 10 263
1937240N13136 1937 37 WP MM NOT_NAMED 1937-09-01 10:00:00 NR 19.7000 121.200 main 127 123 __________O___ -1 19.7000 121.200 4 10 267
1937240N13136 1937 37 WP MM NOT_NAMED 1937-09-01 12:00:00 NR 19.6864 120.865 main 123 123 __________P___ -1 19.6864 120.865 4 9 269
1937240N13136 1937 37 WP MM NOT_NAMED 1937-09-01 15:00:00 NR 19.6849 120.368 main 130 133 __________P___ -1 19.6849 120.368 4 10 273
1937240N13136 1937 37 WP MM NOT_NAMED 1937-09-01 18:00:00 NR 19.7284 119.856 main 155 161 __________P___ -1 19.7284 119.856 4 10 279
1937240N13136 1937 37 WP MM NOT_NAMED 1937-09-01 21:00:00 NR 19.8422 119.300 main 206 214 __________P___ -1 19.8422 119.300 4 11 284
1937240N13136 1937 37 WP MM NOT_NAMED 1937-09-01 22:00:00 NR 19.9000 119.100 main 230 230 __________O___ -1 19.9000 119.100 4 13 290
1937240N13136 1937 37 WP MM NOT_NAMED 1937-09-02 00:00:00 NR 20.0616 118.671 main 275 283 __________P___ -1 20.0616 118.671 4 14 294
1937240N13136 1937 37 WP MM NOT_NAMED 1937-09-02 03:00:00 NR 20.3736 117.977 main 319 256 __________P___ -1 20.3736 117.977 4 15 296
1937240N13136 1937 37 WP MM NOT_NAMED 1937-09-02 06:00:00 NR 20.7302 117.235 main 256 192 __________P___ -1 20.7302 117.235 4 16 297
1937240N13136 1937 37 WP MM NOT_NAMED 1937-09-02 09:00:00 NR 21.0879 116.462 main 192 172 __________P___ -1 21.0879 116.462 4 16 296
1937240N13136 1937 37 WP MM NOT_NAMED 1937-09-02 10:00:00 NR 21.2000 116.200 main 172 145 __________O___ -1 21.2000 116.200 4 16 292
1937240N13136 1937 37 WP MM NOT_NAMED 1937-09-02 12:00:00 NR 21.3836 115.675 main 145 99 __________P___ -1 21.3836 115.675 4 16 290
1937240N13136 1937 37 WP MM NOT_NAMED 1937-09-02 15:00:00 NR 21.6403 114.869 main 99 49 __________P___ -1 21.6403 114.869 4 16 288
1937240N13136 1937 37 WP MM NOT_NAMED 1937-09-02 18:00:00 NR 21.8827 114.058 main 49 0 __________P___ -1 21.8827 114.058 4 16 288
1937240N13136 1937 37 WP MM NOT_NAMED 1937-09-02 21:00:00 NR 22.1202 113.260 main 0 0 __________P___ -1 22.1202 113.260 4 15 288
1937240N13136 1937 37 WP MM NOT_NAMED 1937-09-02 22:00:00 NR 22.2000 113.000 main 0 0 __________O___ -1 22.2000 113.000 4 15 290
1937240N13136 1937 37 WP MM NOT_NAMED 1937-09-03 00:00:00 NR 22.3734 112.502 main 0 0 __________P___ -1 22.3734 112.502 4 15 291
1937240N13136 1937 37 WP MM NOT_NAMED 1937-09-03 03:00:00 NR 22.6344 111.774 main 0 0 __________P___ -1 22.6344 111.774 4 14 291
1937240N13136 1937 37 WP MM NOT_NAMED 1937-09-03 06:00:00 NR 22.8885 111.058 main 0 0 __________P___ -1 22.8885 111.058 4 14 290
1937240N13136 1937 37 WP MM NOT_NAMED 1937-09-03 09:00:00 NR 23.1261 110.341 main 0 0 __________P___ -1 23.1261 110.341 4 14 289
1937240N13136 1937 37 WP MM NOT_NAMED 1937-09-03 10:00:00 NR 23.2000 110.100 main 0 0 __________O___ -1 23.2000 110.100 4 14 288
1937240N13136 1937 37 WP MM NOT_NAMED 1937-09-03 12:00:00 NR 23.3384 109.612 main 0 0 __________P___ -1 23.3384 109.612 4 14 286
1937240N13136 1937 37 WP MM NOT_NAMED 1937-09-03 15:00:00 NR 23.5255 108.869 main 0 0 __________P___ -1 23.5255 108.869 4 14 285
1937240N13136 1937 37 WP MM NOT_NAMED 1937-09-03 18:00:00 NR 23.6938 108.115 main 0 0 __________P___ -1 23.6938 108.115 4 14 283
1937240N13136 1937 37 WP MM NOT_NAMED 1937-09-03 21:00:00 NR 23.8497 107.354 main 0 0 __________P___ -1 23.8497 107.354 4 14 283
1937240N13136 1937 37 WP MM NOT_NAMED 1937-09-03 22:00:00 NR 23.9000 107.100 main 0 __________O___ -1 23.9000 107.100 4 14 282

Digital Typhoon Data and Search

About IBTrACS Database

This database is a web-friendly format of International Best Track Archive for Climate Stewardship (IBTrACS), a global best track data archive curated by NOAA dating back to 1842.

Updated: 2021-12-06